sensor_id;sensor_type;location;lat;lon;timestamp;pressure;altitude;pressure_sealevel;temperature;humidity
27334;BME280;14817;57.104;-2.094;2023-03-20T00:02:00;100295.84;;;6.08;100.00
27334;BME280;14817;57.104;-2.094;2023-03-20T00:04:26;100303.84;;;6.08;100.00
27334;BME280;14817;57.104;-2.094;2023-03-20T00:06:55;100297.81;;;6.06;100.00
27334;BME280;14817;57.104;-2.094;2023-03-20T00:09:21;100304.81;;;6.07;100.00
27334;BME280;14817;57.104;-2.094;2023-03-20T00:11:51;100299.50;;;6.07;100.00
27334;BME280;14817;57.104;-2.094;2023-03-20T00:14:20;100298.91;;;6.03;100.00
27334;BME280;14817;57.104;-2.094;2023-03-20T00:16:48;100291.09;;;6.02;100.00
27334;BME280;14817;57.104;-2.094;2023-03-20T00:19:18;100295.41;;;6.03;100.00
27334;BME280;14817;57.104;-2.094;2023-03-20T00:21:46;100293.97;;;5.99;100.00
27334;BME280;14817;57.104;-2.094;2023-03-20T00:24:14;100294.47;;;5.92;100.00
27334;BME280;14817;57.104;-2.094;2023-03-20T00:26:43;100290.97;;;5.92;100.00
27334;BME280;14817;57.104;-2.094;2023-03-20T00:29:26;100286.59;;;5.91;100.00
27334;BME280;14817;57.104;-2.094;2023-03-20T00:31:57;100289.41;;;5.89;100.00
27334;BME280;14817;57.104;-2.094;2023-03-20T00:34:28;100288.56;;;5.89;100.00
27334;BME280;14817;57.104;-2.094;2023-03-20T00:36:55;100286.53;;;5.81;100.00
27334;BME280;14817;57.104;-2.094;2023-03-20T00:39:23;100282.91;;;5.82;100.00
27334;BME280;14817;57.104;-2.094;2023-03-20T00:41:50;100287.50;;;5.80;100.00
27334;BME280;14817;57.104;-2.094;2023-03-20T00:44:25;100276.41;;;5.75;100.00
27334;BME280;14817;57.104;-2.094;2023-03-20T00:46:56;100280.50;;;5.79;100.00
27334;BME280;14817;57.104;-2.094;2023-03-20T00:49:26;100275.97;;;5.70;100.00
27334;BME280;14817;57.104;-2.094;2023-03-20T00:51:54;100276.22;;;5.67;100.00
27334;BME280;14817;57.104;-2.094;2023-03-20T00:54:23;100273.31;;;5.70;100.00
27334;BME280;14817;57.104;-2.094;2023-03-20T00:56:59;100265.34;;;5.70;100.00
27334;BME280;14817;57.104;-2.094;2023-03-20T00:59:31;100270.78;;;5.68;100.00
27334;BME280;14817;57.104;-2.094;2023-03-20T01:01:59;100268.84;;;5.70;100.00
27334;BME280;14817;57.104;-2.094;2023-03-20T01:04:39;100271.16;;;5.64;100.00
27334;BME280;14817;57.104;-2.094;2023-03-20T01:07:11;100260.66;;;5.62;100.00
27334;BME280;14817;57.104;-2.094;2023-03-20T01:09:38;100257.88;;;5.64;100.00
27334;BME280;14817;57.104;-2.094;2023-03-20T01:12:05;100262.59;;;5.60;100.00
27334;BME280;14817;57.104;-2.094;2023-03-20T01:14:34;100256.44;;;5.60;100.00
27334;BME280;14817;57.104;-2.094;2023-03-20T01:17:00;100258.28;;;5.59;100.00
27334;BME280;14817;57.104;-2.094;2023-03-20T01:19:27;100256.44;;;5.60;100.00
27334;BME280;14817;57.104;-2.094;2023-03-20T01:21:54;100256.56;;;5.58;100.00
27334;BME280;14817;57.104;-2.094;2023-03-20T01:24:21;100258.38;;;5.58;100.00
27334;BME280;14817;57.104;-2.094;2023-03-20T01:26:48;100249.59;;;5.57;100.00
27334;BME280;14817;57.104;-2.094;2023-03-20T01:29:25;100253.91;;;5.58;100.00
27334;BME280;14817;57.104;-2.094;2023-03-20T01:31:56;100252.81;;;5.61;100.00
27334;BME280;14817;57.104;-2.094;2023-03-20T01:34:25;100249.44;;;5.59;100.00
27334;BME280;14817;57.104;-2.094;2023-03-20T01:36:56;100240.19;;;5.53;100.00
27334;BME280;14817;57.104;-2.094;2023-03-20T01:39:31;100239.84;;;5.46;100.00
27334;BME280;14817;57.104;-2.094;2023-03-20T01:42:00;100234.06;;;5.41;100.00
27334;BME280;14817;57.104;-2.094;2023-03-20T01:44:31;100240.34;;;5.40;100.00
27334;BME280;14817;57.104;-2.094;2023-03-20T01:47:01;100239.63;;;5.38;100.00
27334;BME280;14817;57.104;-2.094;2023-03-20T01:51:59;100243.00;;;5.29;100.00
27334;BME280;14817;57.104;-2.094;2023-03-20T01:54:33;100241.59;;;5.25;100.00
27334;BME280;14817;57.104;-2.094;2023-03-20T01:57:19;100240.16;;;5.21;100.00
27334;BME280;14817;57.104;-2.094;2023-03-20T01:59:52;100238.72;;;5.17;100.00
27334;BME280;14817;57.104;-2.094;2023-03-20T02:02:25;100239.44;;;5.07;100.00
27334;BME280;14817;57.104;-2.094;2023-03-20T02:04:58;100239.00;;;5.02;100.00
27334;BME280;14817;57.104;-2.094;2023-03-20T02:07:27;100242.13;;;4.96;100.00
27334;BME280;14817;57.104;-2.094;2023-03-20T02:10:04;100233.94;;;4.88;100.00
27334;BME280;14817;57.104;-2.094;2023-03-20T02:12:51;100233.38;;;4.84;100.00
27334;BME280;14817;57.104;-2.094;2023-03-20T02:15:29;100232.88;;;4.79;100.00
27334;BME280;14817;57.104;-2.094;2023-03-20T02:18:19;100230.69;;;4.73;100.00
27334;BME280;14817;57.104;-2.094;2023-03-20T02:27:10;100226.97;;;4.64;100.00
27334;BME280;14817;57.104;-2.094;2023-03-20T02:32:36;100223.34;;;4.54;100.00
27334;BME280;14817;57.104;-2.094;2023-03-20T02:43:21;100209.38;;;4.41;100.00
27334;BME280;14817;57.104;-2.094;2023-03-20T02:51:18;100206.75;;;4.29;100.00
27334;BME280;14817;57.104;-2.094;2023-03-20T02:53:50;100206.38;;;4.23;100.00
27334;BME280;14817;57.104;-2.094;2023-03-20T02:56:34;100213.59;;;4.21;100.00
27334;BME280;14817;57.104;-2.094;2023-03-20T03:02:06;100208.16;;;4.11;100.00
27334;BME280;14817;57.104;-2.094;2023-03-20T03:04:46;100212.84;;;4.07;100.00
27334;BME280;14817;57.104;-2.094;2023-03-20T03:07:18;100209.25;;;4.08;100.00
27334;BME280;14817;57.104;-2.094;2023-03-20T03:09:55;100211.53;;;4.13;100.00
27334;BME280;14817;57.104;-2.094;2023-03-20T03:12:28;100213.34;;;4.13;100.00
27334;BME280;14817;57.104;-2.094;2023-03-20T03:15:20;100219.00;;;4.08;100.00
27334;BME280;14817;57.104;-2.094;2023-03-20T03:17:50;100223.06;;;4.01;100.00
27334;BME280;14817;57.104;-2.094;2023-03-20T03:20:22;100227.06;;;3.95;100.00
27334;BME280;14817;57.104;-2.094;2023-03-20T03:22:50;100226.16;;;3.83;100.00
27334;BME280;14817;57.104;-2.094;2023-03-20T03:25:22;100223.78;;;3.80;100.00
27334;BME280;14817;57.104;-2.094;2023-03-20T03:27:55;100216.03;;;3.77;100.00
27334;BME280;14817;57.104;-2.094;2023-03-20T03:30:27;100226.25;;;3.71;100.00
27334;BME280;14817;57.104;-2.094;2023-03-20T03:33:12;100221.78;;;3.71;100.00
27334;BME280;14817;57.104;-2.094;2023-03-20T03:35:43;100219.03;;;3.73;100.00
27334;BME280;14817;57.104;-2.094;2023-03-20T03:43:29;100223.50;;;3.72;100.00
27334;BME280;14817;57.104;-2.094;2023-03-20T03:46:00;100221.06;;;3.69;100.00
27334;BME280;14817;57.104;-2.094;2023-03-20T03:48:30;100225.19;;;3.73;100.00
27334;BME280;14817;57.104;-2.094;2023-03-20T03:51:07;100227.34;;;3.68;100.00
27334;BME280;14817;57.104;-2.094;2023-03-20T03:54:02;100231.44;;;3.72;100.00
27334;BME280;14817;57.104;-2.094;2023-03-20T03:56:32;100229.00;;;3.69;100.00
27334;BME280;14817;57.104;-2.094;2023-03-20T03:59:03;100226.50;;;3.67;100.00
27334;BME280;14817;57.104;-2.094;2023-03-20T04:01:35;100229.00;;;3.69;100.00
27334;BME280;14817;57.104;-2.094;2023-03-20T04:04:06;100234.66;;;3.64;100.00
27334;BME280;14817;57.104;-2.094;2023-03-20T04:06:36;100234.66;;;3.64;100.00
27334;BME280;14817;57.104;-2.094;2023-03-20T04:09:05;100226.50;;;3.67;100.00
27334;BME280;14817;57.104;-2.094;2023-03-20T04:11:31;100227.69;;;3.63;100.00
27334;BME280;14817;57.104;-2.094;2023-03-20T04:13:58;100228.03;;;3.59;100.00
27334;BME280;14817;57.104;-2.094;2023-03-20T04:16:25;100228.97;;;3.58;100.00
27334;BME280;14817;57.104;-2.094;2023-03-20T04:18:53;100230.91;;;3.56;100.00
27334;BME280;14817;57.104;-2.094;2023-03-20T04:21:21;100231.50;;;3.48;100.00
27334;BME280;14817;57.104;-2.094;2023-03-20T04:23:50;100226.03;;;3.38;100.00
27334;BME280;14817;57.104;-2.094;2023-03-20T04:26:20;100225.28;;;3.36;100.00
27334;BME280;14817;57.104;-2.094;2023-03-20T04:28:49;100227.72;;;3.39;100.00
27334;BME280;14817;57.104;-2.094;2023-03-20T04:31:33;100223.19;;;3.28;100.00
27334;BME280;14817;57.104;-2.094;2023-03-20T04:34:29;100230.63;;;3.23;100.00
27334;BME280;14817;57.104;-2.094;2023-03-20T04:37:01;100232.69;;;3.07;100.00
27334;BME280;14817;57.104;-2.094;2023-03-20T04:39:40;100231.25;;;3.03;100.00
27334;BME280;14817;57.104;-2.094;2023-03-20T04:42:09;100231.03;;;3.06;100.00
27334;BME280;14817;57.104;-2.094;2023-03-20T04:44:37;100233.03;;;3.02;100.00
27334;BME280;14817;57.104;-2.094;2023-03-20T04:47:04;100237.16;;;3.06;100.00
27334;BME280;14817;57.104;-2.094;2023-03-20T04:49:32;100235.03;;;3.12;100.00
27334;BME280;14817;57.104;-2.094;2023-03-20T04:51:59;100240.44;;;3.10;100.00
27334;BME280;14817;57.104;-2.094;2023-03-20T04:54:35;100242.56;;;3.05;100.00
27334;BME280;14817;57.104;-2.094;2023-03-20T04:57:02;100242.84;;;3.13;100.00
27334;BME280;14817;57.104;-2.094;2023-03-20T04:59:29;100242.63;;;3.16;100.00
27334;BME280;14817;57.104;-2.094;2023-03-20T05:01:56;100242.25;;;3.10;100.00
27334;BME280;14817;57.104;-2.094;2023-03-20T05:04:22;100236.94;;;3.10;100.00
27334;BME280;14817;57.104;-2.094;2023-03-20T05:06:49;100240.19;;;2.89;100.00
27334;BME280;14817;57.104;-2.094;2023-03-20T05:09:20;100239.06;;;3.04;100.00
27334;BME280;14817;57.104;-2.094;2023-03-20T05:11:49;100234.50;;;3.06;100.00
27334;BME280;14817;57.104;-2.094;2023-03-20T05:14:48;100244.59;;;3.01;100.00
27334;BME280;14817;57.104;-2.094;2023-03-20T05:17:36;100242.50;;;2.94;100.00
27334;BME280;14817;57.104;-2.094;2023-03-20T05:20:29;100238.16;;;2.93;100.00
27334;BME280;14817;57.104;-2.094;2023-03-20T05:23:19;100230.97;;;2.95;100.00
27334;BME280;14817;57.104;-2.094;2023-03-20T05:25:56;100234.38;;;2.84;100.00
27334;BME280;14817;57.104;-2.094;2023-03-20T05:28:58;100229.84;;;2.86;100.00
27334;BME280;14817;57.104;-2.094;2023-03-20T05:31:43;100237.63;;;2.88;100.00
27334;BME280;14817;57.104;-2.094;2023-03-20T05:34:25;100248.66;;;2.81;100.00
27334;BME280;14817;57.104;-2.094;2023-03-20T05:37:08;100237.66;;;2.75;100.00
27334;BME280;14817;57.104;-2.094;2023-03-20T05:39:59;100254.50;;;2.74;100.00
27334;BME280;14817;57.104;-2.094;2023-03-20T05:42:55;100270.56;;;2.71;100.00
27334;BME280;14817;57.104;-2.094;2023-03-20T05:45:57;100277.88;;;2.80;100.00
27334;BME280;14817;57.104;-2.094;2023-03-20T05:48:44;100264.22;;;2.86;100.00
27334;BME280;14817;57.104;-2.094;2023-03-20T05:51:29;100266.13;;;2.84;100.00
27334;BME280;14817;57.104;-2.094;2023-03-20T05:54:11;100263.56;;;2.95;100.00
27334;BME280;14817;57.104;-2.094;2023-03-20T05:56:56;100262.16;;;3.02;100.00
27334;BME280;14817;57.104;-2.094;2023-03-20T05:59:42;100256.72;;;3.17;100.00
27334;BME280;14817;57.104;-2.094;2023-03-20T06:02:28;100260.16;;;3.30;100.00
27334;BME280;14817;57.104;-2.094;2023-03-20T06:05:05;100266.06;;;3.34;100.00
27334;BME280;14817;57.104;-2.094;2023-03-20T06:07:41;100263.72;;;3.42;100.00
27334;BME280;14817;57.104;-2.094;2023-03-20T06:10:11;100263.56;;;3.43;100.00
27334;BME280;14817;57.104;-2.094;2023-03-20T06:12:38;100253.13;;;3.42;100.00
27334;BME280;14817;57.104;-2.094;2023-03-20T06:15:06;100257.81;;;3.50;100.00
27334;BME280;14817;57.104;-2.094;2023-03-20T06:17:38;100264.25;;;3.58;100.00
27334;BME280;14817;57.104;-2.094;2023-03-20T06:20:06;100268.50;;;3.61;100.00
27334;BME280;14817;57.104;-2.094;2023-03-20T06:22:33;100265.88;;;3.72;100.00
27334;BME280;14817;57.104;-2.094;2023-03-20T06:25:01;100262.53;;;3.81;100.00
27334;BME280;14817;57.104;-2.094;2023-03-20T06:27:33;100254.97;;;3.88;100.00
27334;BME280;14817;57.104;-2.094;2023-03-20T06:30:00;100268.59;;;3.95;100.00
27334;BME280;14817;57.104;-2.094;2023-03-20T06:32:31;100263.56;;;4.03;100.00
27334;BME280;14817;57.104;-2.094;2023-03-20T06:35:00;100267.66;;;4.07;100.00
27334;BME280;14817;57.104;-2.094;2023-03-20T06:37:28;100273.56;;;4.11;100.00
27334;BME280;14817;57.104;-2.094;2023-03-20T06:40:03;100269.34;;;4.08;100.00
27334;BME280;14817;57.104;-2.094;2023-03-20T06:42:31;100273.69;;;4.09;100.00
27334;BME280;14817;57.104;-2.094;2023-03-20T06:44:59;100277.31;;;4.08;100.00
27334;BME280;14817;57.104;-2.094;2023-03-20T06:47:49;100280.34;;;4.15;100.00
27334;BME280;14817;57.104;-2.094;2023-03-20T06:50:16;100279.88;;;4.21;100.00
27334;BME280;14817;57.104;-2.094;2023-03-20T06:52:43;100282.16;;;4.25;100.00
27334;BME280;14817;57.104;-2.094;2023-03-20T06:55:29;100287.22;;;4.28;100.00
27334;BME280;14817;57.104;-2.094;2023-03-20T06:57:56;100285.91;;;4.23;100.00
27334;BME280;14817;57.104;-2.094;2023-03-20T07:00:24;100297.72;;;4.30;100.00
27334;BME280;14817;57.104;-2.094;2023-03-20T07:02:51;100298.31;;;4.34;100.00
27334;BME280;14817;57.104;-2.094;2023-03-20T07:05:18;100288.66;;;4.33;100.00
27334;BME280;14817;57.104;-2.094;2023-03-20T07:07:46;100295.44;;;4.37;100.00
27334;BME280;14817;57.104;-2.094;2023-03-20T07:10:13;100284.13;;;4.46;100.00
27334;BME280;14817;57.104;-2.094;2023-03-20T07:12:46;100278.94;;;4.56;100.00
27334;BME280;14817;57.104;-2.094;2023-03-20T07:15:14;100281.00;;;4.63;100.00
27334;BME280;14817;57.104;-2.094;2023-03-20T07:17:42;100284.50;;;4.64;100.00
27334;BME280;14817;57.104;-2.094;2023-03-20T07:20:09;100289.69;;;4.65;100.00
27334;BME280;14817;57.104;-2.094;2023-03-20T07:22:36;100286.19;;;4.76;100.00
27334;BME280;14817;57.104;-2.094;2023-03-20T07:25:23;100281.94;;;4.74;100.00
27334;BME280;14817;57.104;-2.094;2023-03-20T07:28:07;100278.22;;;4.76;100.00
27334;BME280;14817;57.104;-2.094;2023-03-20T07:30:37;100279.44;;;4.72;100.00
27334;BME280;14817;57.104;-2.094;2023-03-20T07:33:04;100290.38;;;4.56;100.00
27334;BME280;14817;57.104;-2.094;2023-03-20T07:35:33;100291.34;;;4.55;100.00
27334;BME280;14817;57.104;-2.094;2023-03-20T07:38:00;100301.13;;;4.55;100.00
27334;BME280;14817;57.104;-2.094;2023-03-20T07:40:29;100297.88;;;4.62;100.00
27334;BME280;14817;57.104;-2.094;2023-03-20T07:43:04;100291.59;;;4.75;100.00
27334;BME280;14817;57.104;-2.094;2023-03-20T07:45:47;100289.56;;;4.78;100.00
27334;BME280;14817;57.104;-2.094;2023-03-20T07:48:17;100289.31;;;4.70;100.00
27334;BME280;14817;57.104;-2.094;2023-03-20T07:50:45;100289.19;;;4.83;100.00
27334;BME280;14817;57.104;-2.094;2023-03-20T07:53:12;100288.22;;;4.95;100.00
27334;BME280;14817;57.104;-2.094;2023-03-20T07:55:38;100278.22;;;4.87;100.00
27334;BME280;14817;57.104;-2.094;2023-03-20T07:58:08;100280.88;;;4.87;100.00
27334;BME280;14817;57.104;-2.094;2023-03-20T08:00:35;100284.22;;;5.01;100.00
27334;BME280;14817;57.104;-2.094;2023-03-20T08:03:02;100282.06;;;5.06;100.00
27334;BME280;14817;57.104;-2.094;2023-03-20T08:05:29;100293.84;;;5.24;100.00
27334;BME280;14817;57.104;-2.094;2023-03-20T08:07:56;100293.94;;;5.34;100.00
27334;BME280;14817;57.104;-2.094;2023-03-20T08:10:23;100291.38;;;5.55;100.00
27334;BME280;14817;57.104;-2.094;2023-03-20T08:12:50;100286.84;;;5.67;100.00
27334;BME280;14817;57.104;-2.094;2023-03-20T08:15:17;100291.59;;;5.84;100.00
27334;BME280;14817;57.104;-2.094;2023-03-20T08:17:44;100297.63;;;5.98;100.00
27334;BME280;14817;57.104;-2.094;2023-03-20T08:20:13;100291.34;;;6.20;100.00
27334;BME280;14817;57.104;-2.094;2023-03-20T08:22:40;100305.06;;;6.25;100.00
27334;BME280;14817;57.104;-2.094;2023-03-20T08:25:10;100299.75;;;6.25;100.00
27334;BME280;14817;57.104;-2.094;2023-03-20T08:27:37;100309.13;;;6.40;100.00
27334;BME280;14817;57.104;-2.094;2023-03-20T08:30:04;100304.63;;;6.41;100.00
27334;BME280;14817;57.104;-2.094;2023-03-20T08:32:32;100313.34;;;6.52;100.00
27334;BME280;14817;57.104;-2.094;2023-03-20T08:34:59;100314.78;;;6.57;100.00
27334;BME280;14817;57.104;-2.094;2023-03-20T08:37:26;100317.41;;;6.47;100.00
27334;BME280;14817;57.104;-2.094;2023-03-20T08:39:53;100314.75;;;6.47;100.00
27334;BME280;14817;57.104;-2.094;2023-03-20T08:42:20;100313.13;;;6.56;100.00
27334;BME280;14817;57.104;-2.094;2023-03-20T08:44:47;100320.09;;;6.57;100.00
27334;BME280;14817;57.104;-2.094;2023-03-20T08:47:14;100318.88;;;6.61;100.00
27334;BME280;14817;57.104;-2.094;2023-03-20T08:49:41;100316.91;;;6.63;100.00
27334;BME280;14817;57.104;-2.094;2023-03-20T08:52:09;100307.81;;;6.65;100.00
27334;BME280;14817;57.104;-2.094;2023-03-20T08:54:36;100318.28;;;6.57;100.00
27334;BME280;14817;57.104;-2.094;2023-03-20T08:57:03;100324.66;;;6.66;100.00
27334;BME280;14817;57.104;-2.094;2023-03-20T08:59:29;100314.44;;;6.71;100.00
27334;BME280;14817;57.104;-2.094;2023-03-20T09:01:56;100321.59;;;6.70;100.00
27334;BME280;14817;57.104;-2.094;2023-03-20T09:04:23;100306.88;;;6.66;100.00
27334;BME280;14817;57.104;-2.094;2023-03-20T09:06:50;100309.41;;;6.68;100.00
27334;BME280;14817;57.104;-2.094;2023-03-20T09:09:17;100305.47;;;6.72;100.00
27334;BME280;14817;57.104;-2.094;2023-03-20T09:11:46;100315.28;;;6.71;100.00
27334;BME280;14817;57.104;-2.094;2023-03-20T09:14:13;100317.50;;;6.66;100.00
27334;BME280;14817;57.104;-2.094;2023-03-20T09:16:40;100313.31;;;6.64;100.00
27334;BME280;14817;57.104;-2.094;2023-03-20T09:19:07;100306.88;;;6.66;100.00
27334;BME280;14817;57.104;-2.094;2023-03-20T09:21:34;100314.56;;;6.69;100.00
27334;BME280;14817;57.104;-2.094;2023-03-20T09:24:01;100306.34;;;6.72;100.00
27334;BME280;14817;57.104;-2.094;2023-03-20T09:26:30;100306.78;;;6.78;100.00
27334;BME280;14817;57.104;-2.094;2023-03-20T09:28:57;100303.00;;;6.80;100.00
27334;BME280;14817;57.104;-2.094;2023-03-20T09:31:23;100310.69;;;6.73;100.00
27334;BME280;14817;57.104;-2.094;2023-03-20T09:33:50;100315.47;;;6.80;100.00
27334;BME280;14817;57.104;-2.094;2023-03-20T09:36:17;100312.28;;;6.86;100.00
27334;BME280;14817;57.104;-2.094;2023-03-20T09:38:44;100310.44;;;6.86;100.00
27334;BME280;14817;57.104;-2.094;2023-03-20T09:41:21;100314.41;;;6.92;100.00
27334;BME280;14817;57.104;-2.094;2023-03-20T09:51:58;100315.13;;;7.04;100.00
27334;BME280;14817;57.104;-2.094;2023-03-20T09:54:28;100318.78;;;7.03;100.00
27334;BME280;14817;57.104;-2.094;2023-03-20T09:57:21;100322.03;;;7.06;100.00
27334;BME280;14817;57.104;-2.094;2023-03-20T09:59:56;100317.53;;;7.07;100.00
27334;BME280;14817;57.104;-2.094;2023-03-20T10:02:36;100321.22;;;7.15;100.00
27334;BME280;14817;57.104;-2.094;2023-03-20T10:05:14;100325.16;;;7.21;100.00
27334;BME280;14817;57.104;-2.094;2023-03-20T10:07:44;100323.50;;;7.30;100.00
27334;BME280;14817;57.104;-2.094;2023-03-20T10:10:13;100327.00;;;7.30;100.00
27334;BME280;14817;57.104;-2.094;2023-03-20T10:12:48;100317.34;;;7.39;100.00
27334;BME280;14817;57.104;-2.094;2023-03-20T10:15:27;100322.94;;;7.36;100.00
27334;BME280;14817;57.104;-2.094;2023-03-20T10:18:42;100319.31;;;7.37;100.00
27334;BME280;14817;57.104;-2.094;2023-03-20T10:21:15;100315.09;;;7.34;100.00
27334;BME280;14817;57.104;-2.094;2023-03-20T10:24:01;100319.59;;;7.44;100.00
27334;BME280;14817;57.104;-2.094;2023-03-20T10:26:32;100317.66;;;7.46;100.00
27334;BME280;14817;57.104;-2.094;2023-03-20T10:29:03;100322.84;;;7.47;100.00
27334;BME280;14817;57.104;-2.094;2023-03-20T10:32:11;100317.94;;;7.52;100.00
27334;BME280;14817;57.104;-2.094;2023-03-20T10:35:11;100327.72;;;7.32;100.00
27334;BME280;14817;57.104;-2.094;2023-03-20T10:38:09;100322.09;;;7.26;100.00
27334;BME280;14817;57.104;-2.094;2023-03-20T10:40:40;100311.88;;;7.31;100.00
27334;BME280;14817;57.104;-2.094;2023-03-20T10:43:24;100314.53;;;7.31;100.00
27334;BME280;14817;57.104;-2.094;2023-03-20T10:46:07;100320.38;;;7.15;100.00
27334;BME280;14817;57.104;-2.094;2023-03-20T10:49:06;100318.97;;;7.21;100.00
27334;BME280;14817;57.104;-2.094;2023-03-20T10:51:45;100315.91;;;7.25;100.00
27334;BME280;14817;57.104;-2.094;2023-03-20T10:54:22;100317.91;;;7.33;100.00
27334;BME280;14817;57.104;-2.094;2023-03-20T10:56:51;100320.03;;;7.39;100.00
27334;BME280;14817;57.104;-2.094;2023-03-20T10:59:27;100316.66;;;7.37;100.00
27334;BME280;14817;57.104;-2.094;2023-03-20T11:01:55;100321.28;;;7.35;100.00
27334;BME280;14817;57.104;-2.094;2023-03-20T11:04:22;100324.75;;;7.26;100.00
27334;BME280;14817;57.104;-2.094;2023-03-20T11:09:28;100322.38;;;7.32;100.00
27334;BME280;14817;57.104;-2.094;2023-03-20T11:12:00;100317.59;;;7.36;100.00
27334;BME280;14817;57.104;-2.094;2023-03-20T11:14:38;100326.25;;;7.19;100.00
27334;BME280;14817;57.104;-2.094;2023-03-20T11:17:05;100327.13;;;7.29;100.00
27334;BME280;14817;57.104;-2.094;2023-03-20T11:19:34;100313.31;;;7.45;100.00
27334;BME280;14817;57.104;-2.094;2023-03-20T11:24:55;100324.47;;;7.29;100.00
27334;BME280;14817;57.104;-2.094;2023-03-20T11:27:29;100318.28;;;7.19;100.00
27334;BME280;14817;57.104;-2.094;2023-03-20T11:29:57;100302.06;;;7.41;100.00
27334;BME280;14817;57.104;-2.094;2023-03-20T11:32:33;100312.03;;;7.49;100.00
27334;BME280;14817;57.104;-2.094;2023-03-20T11:37:53;100309.97;;;7.82;100.00
27334;BME280;14817;57.104;-2.094;2023-03-20T11:40:25;100312.22;;;7.86;100.00
27334;BME280;14817;57.104;-2.094;2023-03-20T11:43:04;100306.03;;;7.95;100.00
27334;BME280;14817;57.104;-2.094;2023-03-20T11:45:37;100304.78;;;8.00;100.00
27334;BME280;14817;57.104;-2.094;2023-03-20T11:48:05;100304.03;;;8.17;100.00
27334;BME280;14817;57.104;-2.094;2023-03-20T11:50:46;100306.16;;;8.23;100.00
27334;BME280;14817;57.104;-2.094;2023-03-20T11:58:33;100303.34;;;8.25;100.00
27334;BME280;14817;57.104;-2.094;2023-03-20T12:01:02;100303.66;;;8.41;100.00
27334;BME280;14817;57.104;-2.094;2023-03-20T12:06:07;100301.06;;;8.30;100.00
27334;BME280;14817;57.104;-2.094;2023-03-20T12:08:35;100284.53;;;8.46;100.00
27334;BME280;14817;57.104;-2.094;2023-03-20T12:11:22;100285.88;;;8.59;100.00
27334;BME280;14817;57.104;-2.094;2023-03-20T12:13:52;100282.50;;;8.67;100.00
27334;BME280;14817;57.104;-2.094;2023-03-20T12:16:22;100283.16;;;8.79;100.00
27334;BME280;14817;57.104;-2.094;2023-03-20T12:18:53;100281.66;;;8.67;100.00
27334;BME280;14817;57.104;-2.094;2023-03-20T12:21:38;100283.56;;;8.74;100.00
27334;BME280;14817;57.104;-2.094;2023-03-20T12:24:20;100284.06;;;8.60;100.00
27334;BME280;14817;57.104;-2.094;2023-03-20T12:26:57;100279.75;;;8.49;100.00
27334;BME280;14817;57.104;-2.094;2023-03-20T12:29:30;100280.28;;;8.53;100.00
27334;BME280;14817;57.104;-2.094;2023-03-20T12:32:03;100275.00;;;8.24;100.00
27334;BME280;14817;57.104;-2.094;2023-03-20T12:34:44;100276.81;;;8.23;100.00
27334;BME280;14817;57.104;-2.094;2023-03-20T12:37:14;100276.97;;;8.22;100.00
27334;BME280;14817;57.104;-2.094;2023-03-20T12:40:04;100282.44;;;8.20;100.00
27334;BME280;14817;57.104;-2.094;2023-03-20T12:45:21;100275.84;;;8.14;100.00
27334;BME280;14817;57.104;-2.094;2023-03-20T12:50:41;100275.56;;;8.17;100.00
27334;BME280;14817;57.104;-2.094;2023-03-20T13:01:15;100264.06;;;7.97;100.00
27334;BME280;14817;57.104;-2.094;2023-03-20T13:06:58;100265.09;;;7.77;100.00
27334;BME280;14817;57.104;-2.094;2023-03-20T13:12:04;100254.81;;;7.82;100.00
27334;BME280;14817;57.104;-2.094;2023-03-20T13:20:30;100247.94;;;7.70;100.00
27334;BME280;14817;57.104;-2.094;2023-03-20T13:23:20;100251.47;;;7.61;100.00
27334;BME280;14817;57.104;-2.094;2023-03-20T13:31:29;100246.00;;;7.52;100.00
27334;BME280;14817;57.104;-2.094;2023-03-20T13:42:21;100245.56;;;7.38;100.00
27334;BME280;14817;57.104;-2.094;2023-03-20T13:44:50;100247.22;;;7.29;100.00
27334;BME280;14817;57.104;-2.094;2023-03-20T13:47:23;100238.38;;;7.19;100.00
27334;BME280;14817;57.104;-2.094;2023-03-20T13:50:24;100242.16;;;7.16;100.00
27334;BME280;14817;57.104;-2.094;2023-03-20T13:53:05;100237.25;;;7.11;100.00
27334;BME280;14817;57.104;-2.094;2023-03-20T13:55:48;100237.63;;;6.97;100.00
27334;BME280;14817;57.104;-2.094;2023-03-20T13:58:42;100231.22;;;7.09;100.00
27334;BME280;14817;57.104;-2.094;2023-03-20T14:01:23;100228.13;;;7.14;100.00
27334;BME280;14817;57.104;-2.094;2023-03-20T14:03:52;100226.47;;;7.23;100.00
27334;BME280;14817;57.104;-2.094;2023-03-20T14:08:53;100228.84;;;7.16;100.00
27334;BME280;14817;57.104;-2.094;2023-03-20T14:13:53;100213.56;;;7.18;100.00
27334;BME280;14817;57.104;-2.094;2023-03-20T14:16:21;100209.53;;;7.24;100.00
27334;BME280;14817;57.104;-2.094;2023-03-20T14:18:49;100205.31;;;7.21;100.00
27334;BME280;14817;57.104;-2.094;2023-03-20T14:21:29;100199.56;;;7.26;100.00
27334;BME280;14817;57.104;-2.094;2023-03-20T14:24:00;100187.66;;;7.30;100.00
27334;BME280;14817;57.104;-2.094;2023-03-20T14:26:37;100190.31;;;7.30;100.00
27334;BME280;14817;57.104;-2.094;2023-03-20T14:31:38;100174.63;;;7.36;100.00
27334;BME280;14817;57.104;-2.094;2023-03-20T14:34:14;100170.69;;;7.31;100.00
27334;BME280;14817;57.104;-2.094;2023-03-20T14:37:01;100177.25;;;7.46;100.00
27334;BME280;14817;57.104;-2.094;2023-03-20T14:45:12;100179.38;;;7.33;100.00
27334;BME280;14817;57.104;-2.094;2023-03-20T14:50:48;100164.50;;;7.21;100.00
27334;BME280;14817;57.104;-2.094;2023-03-20T15:01:23;100157.91;;;7.05;100.00
27334;BME280;14817;57.104;-2.094;2023-03-20T15:06:28;100160.59;;;7.05;100.00
27334;BME280;14817;57.104;-2.094;2023-03-20T15:09:00;100156.09;;;7.15;100.00
27334;BME280;14817;57.104;-2.094;2023-03-20T15:11:30;100157.66;;;7.08;100.00
27334;BME280;14817;57.104;-2.094;2023-03-20T15:13:57;100151.47;;;7.08;100.00
27334;BME280;14817;57.104;-2.094;2023-03-20T15:16:28;100143.75;;;7.14;100.00